• Join FlightAware (Why Join?)
  • Login
  • US Flag 
01:01PM EDT


 

Airport Tracker/Info


-or-


 

Live Flight TrackerFlight Track Log ✈ ACA831 ✈ 20-Aug-2013 ✈ CYUL - CYYZ

Flight Track Log - Related Links

Times and Time Zones

All times are in EDT time to prevent confusion due to time zone crossing. See the ACA831 flight status page for this flight to view local times or setup timezone preferences in your user account.

Time Position Orientation Groundspeed Altitude Reporting Facility
EDT Latitude Longitude Course Direction KTS MPH feet Rate Location/Type
04:16PM 45.4680 -73.7280 199° South 150 173  Level FlightAware
04:16PM 45.4570 -73.7430 224° Southwest 150 173 1,300 3,420 Climbing FlightAware
04:16PM 45.4490 -73.7530 221° Southwest 157 181 2,000 2,460 Climbing FlightAware
04:17PM 45.4360 -73.7690 221° Southwest 194 223 2,800 2,580 Climbing FlightAware
04:17PM 45.4200 -73.7880 220° Southwest 223 257 3,800 3,060 Climbing FlightAware
04:17PM 45.3970 -73.8150 220° Southwest 255 293 5,200 3,600 Climbing FlightAware
04:18PM 45.3790 -73.8410 225° Southwest 268 308 6,600 3,960 Climbing FlightAware
04:18PM 45.3750 -73.8580 251° West 268 308 7,200 4,200 Climbing FlightAware
04:18PM 45.3730 -73.8760 261° West 269 310 8,000 4,620 Climbing FlightAware
04:19PM 45.3830 -73.9200 288° West 276 318 9,900 3,300 Climbing FlightAware
04:19PM 45.4070 -73.9900 296° West 327 376 11,600 3,060 Climbing FlightAware
04:20PM 45.4230 -74.0520 290° West 339 390 13,500 3,120 Climbing FlightAware
04:20PM 45.4250 -74.1370 272° West 360 414 15,300 2,520 Climbing FlightAware
04:21PM 45.4220 -74.2300 267° West 366 421 16,700 3,240 Climbing FlightAware
04:22PM 45.4200 -74.3170 268° West 366 421 19,200 3,360 Climbing FlightAware
04:22PM 45.4180 -74.4040 268° West 384 442 20,800 2,580 Climbing FlightAware
04:23PM 45.4090 -74.4760 260° West 402 463 22,000 2,700 Climbing FlightAware
04:23PM 45.3910 -74.5890 257° West 414 476 24,000 2,640 Climbing FlightAware
04:24PM 45.3760 -74.6730 256° West 422 486 25,300 2,520 Climbing FlightAware
04:24PM 45.3590 -74.7710 256° West 429 494 26,900 2,340 Climbing FlightAware
04:25PM 45.3410 -74.8750 256° West 440 506 28,200 2,400 Climbing FlightAware
04:26PM 45.3260 -74.9670 257° West 439 505 29,700 2,640 Climbing FlightAware
04:26PM 45.3100 -75.0610 256° West 438 504 31,200 2,280 Climbing FlightAware
04:27PM 45.2940 -75.1500 256° West 439 505 32,400 2,100 Climbing FlightAware
04:27PM 45.2760 -75.2530 256° West 435 501 33,800 1,380 Climbing FlightAware
04:28PM 45.2620 -75.3340 256° West 431 496 34,000 180 Climbing FlightAware
04:29PM 45.2440 -75.4390 256° West 426 490 34,000  Level FlightAware
04:29PM 45.2270 -75.5360 256° West 425 489 34,000  Level FlightAware
04:30PM 45.2090 -75.6360 256° West 425 489 34,000  Level FlightAware
04:30PM 45.1970 -75.7020 256° West 427 491 34,000  Level FlightAware
04:31PM 45.1820 -75.7850 256° West 428 493 34,000  Level FlightAware
04:31PM 45.1590 -75.9100 255° West 431 496 34,000  Level FlightAware
04:32PM 45.1380 -76.0240 255° West 430 495 34,000  Level FlightAware
04:33PM 45.1230 -76.1090 256° West 430 495 34,000  Level FlightAware
04:33PM 45.0990 -76.2240 254° West 435 501 34,000  Level FlightAware
04:34PM 45.0690 -76.3120 244° Southwest 439 505 34,000  Level FlightAware
04:35PM 45.0250 -76.4230 241° Southwest 439 505 34,000  Level FlightAware
04:35PM 44.9900 -76.5130 241° Southwest 435 501 34,000  Level FlightAware
04:36PM 44.9570 -76.5940 240° Southwest 436 502 34,000  Level FlightAware
04:36PM 44.9150 -76.6980 240° Southwest 438 504 34,000  Level FlightAware
04:37PM 44.8800 -76.7860 241° Southwest 437 503 34,000  Level FlightAware
04:38PM 44.8470 -76.8690 241° Southwest 436 502 34,000  Level FlightAware
04:38PM 44.8160 -76.9460 240° Southwest 436 502 34,000  Level FlightAware
04:39PM 44.7810 -77.0340 241° Southwest 435 501 34,000  Level FlightAware
04:39PM 44.7560 -77.0960 240° Southwest 434 499 34,000 -120 Level FlightAware
04:40PM 44.7160 -77.1930 240° Southwest 434 499 33,900 -1,140 Descending FlightAware
04:41PM 44.6690 -77.3080 240° Southwest 423 487 32,400 -1,860 Descending FlightAware
04:41PM 44.6370 -77.3870 240° Southwest 421 484 31,300 -2,040 Descending FlightAware
04:42PM 44.6050 -77.4660 240° Southwest 409 471 30,200 -1,920 Descending FlightAware
04:42PM 44.5680 -77.5570 240° Southwest 401 461 29,000 -1,860 Descending FlightAware
04:43PM 44.5350 -77.6360 240° Southwest 393 452 27,900 -1,920 Descending FlightAware
04:44PM 44.5000 -77.7200 240° Southwest 389 448 26,700 -1,980 Descending FlightAware
04:44PM 44.4620 -77.8130 240° Southwest 382 440 25,400 -1,980 Descending FlightAware
04:45PM 44.4290 -77.8930 240° Southwest 375 432 24,200 -1,800 Descending FlightAware
04:46PM 44.3910 -77.9830 239° Southwest 367 422 22,900 -1,740 Descending FlightAware
04:46PM 44.3650 -78.0460 240° Southwest 361 415 22,000 -1,740 Descending FlightAware
04:47PM 44.3340 -78.1190 239° Southwest 353 406 21,000 -1,740 Descending FlightAware
04:47PM 44.3060 -78.1860 240° Southwest 347 399 20,000 -1,740 Descending FlightAware
04:48PM 44.2780 -78.2520 239° Southwest 342 394 19,000 -1,380 Descending FlightAware
04:49PM 44.2430 -78.3330 239° Southwest 327 376 18,200 -1,320 Descending FlightAware
04:49PM 44.2180 -78.3990 242° Southwest 318 366 17,300 -1,560 Descending FlightAware
04:50PM 44.1940 -78.4690 244° Southwest 311 358 16,300 -1,620 Descending FlightAware
04:51PM 44.1720 -78.5350 245° Southwest 307 353 15,300 -1,560 Descending FlightAware
04:51PM 44.1490 -78.6050 245° Southwest 298 343 14,400 -1,500 Descending FlightAware
04:52PM 44.1260 -78.6760 246° West 296 341 13,300 -1,620 Descending FlightAware
04:52PM 44.1060 -78.7350 245° Southwest 293 337 12,400 -1,620 Descending FlightAware
04:53PM 44.0880 -78.7870 244° Southwest 290 334 11,600 -1,500 Descending FlightAware
04:54PM 44.0670 -78.8500 245° Southwest 288 331 10,700 -1,500 Descending FlightAware
04:54PM 44.0510 -78.8960 244° Southwest 285 328 10,000 -1,620 Descending FlightAware
04:54PM 44.0410 -78.9260 245° Southwest 285 328 9,500 -1,500 Descending FlightAware
04:55PM 44.0290 -78.9630 246° West 285 328 9,000 -1,380 Descending FlightAware
04:55PM 44.0160 -78.9990 243° Southwest 279 321 8,500 -1,260 Descending FlightAware
04:55PM 44.0070 -79.0270 246° West 272 313 8,200 -1,020 Descending FlightAware
04:56PM 43.9970 -79.0560 244° Southwest 265 305 7,900 -1,080 Descending FlightAware
04:56PM 43.9880 -79.0840 246° West 261 300 7,500 -1,260 Descending FlightAware
04:56PM 43.9780 -79.1130 244° Southwest 259 298 7,100 -1,320 Descending FlightAware
04:57PM 43.9680 -79.1430 245° Southwest 257 296 6,600 -1,800 Descending FlightAware
04:57PM 43.9550 -79.1790 243° Southwest 259 298 5,900 -1,620 Descending FlightAware
04:57PM 43.9420 -79.2160 244° Southwest 261 300 5,400 -1,080 Descending FlightAware
04:58PM 43.9320 -79.2460 245° Southwest 251 289 5,100 -780 Descending FlightAware
04:58PM 43.9220 -79.2750 244° Southwest 251 289 4,900 -540 Descending FlightAware
04:58PM 43.9150 -79.2970 246° West 250 288 4,800 -180 Descending FlightAware
04:59PM 43.9040 -79.3250 241° Southwest 248 285 4,800 240 Level FlightAware
04:59PM 43.9010 -79.3320 239° Southwest 249 287 4,900 240 Climbing FlightAware
04:59PM 43.8860 -79.3550 228° Southwest 246 283 4,900  Level FlightAware
05:00PM 43.8670 -79.3830 227° Southwest 219 252 4,900 -180 Level FlightAware
05:00PM 43.8540 -79.4020 227° Southwest 198 228 4,800 -480 Descending FlightAware
05:00PM 43.8420 -79.4190 226° Southwest 190 219 4,600 -960 Descending FlightAware
05:01PM 43.8270 -79.4410 227° Southwest 186 214 4,100 -1,080 Descending FlightAware
05:01PM 43.8180 -79.4540 226° Southwest 185 213 3,900 -1,080 Descending FlightAware
05:01PM 43.8040 -79.4760 229° Southwest 177 204 3,400 -1,080 Descending FlightAware
05:02PM 43.7950 -79.4880 224° Southwest 174 200 3,200 -900 Descending FlightAware
05:02PM 43.7850 -79.5030 227° Southwest 172 198 2,900 -900 Descending FlightAware
05:02PM 43.7740 -79.5190 226° Southwest 169 194 2,600 -900 Descending FlightAware
05:03PM 43.7630 -79.5360 228° Southwest 173 199 2,300 -840 Descending FlightAware
05:03PM 43.7490 -79.5550 224° Southwest 173 199 2,000 -900 Descending FlightAware
05:03PM 43.7440 -79.5630 229° Southwest 169 194 1,800 -1,080 Descending FlightAware
05:04PM 43.7300 -79.5830 226° Southwest 157 181 1,400 -840 Descending FlightAware
05:04PM 43.7210 -79.5960 226° Southwest 140 161 1,200 -780 Descending FlightAware
05:04PM 43.7120 -79.6090 226° Southwest 141 162 900 -780 Descending FlightAware
05:05PM 43.7030 -79.6220 226° Southwest 136 157 700 -540 Descending FlightAware
05:05PM 43.6980 -79.6290 225° Southwest 140 161 600 -180 Descending FlightAware
05:05PM 43.6870 -79.6450 226° Southwest 140 161 600  Level FlightAware